createdAt,value
2023-05-05T00:00:35.179Z,101593.50
2023-05-05T00:06:11.696Z,101589.79
2023-05-05T00:11:37.376Z,101590.00
2023-05-05T00:17:03.160Z,101587.54
2023-05-05T00:22:29.124Z,101585.67
2023-05-05T00:27:54.798Z,101582.65
2023-05-05T00:33:20.806Z,101577.65
2023-05-05T00:38:46.555Z,101571.94
2023-05-05T00:44:12.298Z,101568.52
2023-05-05T00:49:38.107Z,101570.80
2023-05-05T00:55:04.251Z,101568.65
2023-05-05T01:00:32.352Z,101560.17
2023-05-05T01:06:09.383Z,101562.56
2023-05-05T01:11:41.665Z,101556.95
2023-05-05T01:17:17.215Z,101554.95
2023-05-05T01:22:47.588Z,101558.33
2023-05-05T01:28:26.938Z,101558.49
2023-05-05T01:34:01.732Z,101557.73
2023-05-05T01:39:32.896Z,101554.81
2023-05-05T01:45:01.971Z,101557.83
2023-05-05T01:50:30.338Z,101556.95
2023-05-05T01:55:59.400Z,101556.35
2023-05-05T02:01:27.048Z,101552.27
2023-05-05T02:06:58.154Z,101550.73
2023-05-05T02:12:26.375Z,101545.18
2023-05-05T02:17:52.040Z,101539.67
2023-05-05T02:23:19.052Z,101538.17
2023-05-05T02:28:52.542Z,101538.50
2023-05-05T02:34:20.782Z,101543.27
2023-05-05T02:39:55.845Z,101542.91
2023-05-05T02:45:26.099Z,101538.23
2023-05-05T02:50:53.880Z,101540.04
2023-05-05T02:56:30.723Z,101533.48
2023-05-05T03:02:06.470Z,101534.39
2023-05-05T03:07:36.080Z,101540.87
2023-05-05T03:13:01.471Z,101539.24
2023-05-05T03:18:29.056Z,101542.09
2023-05-05T03:23:55.006Z,101544.42
2023-05-05T03:29:20.794Z,101539.41
2023-05-05T03:34:46.636Z,101543.77
2023-05-05T03:40:12.303Z,101546.23
2023-05-05T03:45:38.418Z,101551.74
2023-05-05T03:51:06.303Z,101548.22
2023-05-05T03:56:32.058Z,101547.10
2023-05-05T04:01:58.185Z,101541.38
2023-05-05T04:07:24.031Z,101536.05
2023-05-05T04:12:49.725Z,101536.48
2023-05-05T04:18:15.454Z,101536.76
2023-05-05T04:23:41.140Z,101538.30
2023-05-05T04:29:06.922Z,101536.73
2023-05-05T04:34:32.458Z,101544.34
2023-05-05T04:39:58.098Z,101552.02
2023-05-05T04:45:24.120Z,101553.77
2023-05-05T04:50:49.844Z,101563.33
2023-05-05T04:56:15.593Z,101560.73
2023-05-05T05:01:41.280Z,101569.13
2023-05-05T05:07:07.205Z,101568.91
2023-05-05T05:12:32.945Z,101577.75
2023-05-05T05:17:58.675Z,101577.13
2023-05-05T05:23:24.457Z,101576.17
2023-05-05T05:28:50.101Z,101583.91
2023-05-05T05:34:15.912Z,101587.06
2023-05-05T05:39:43.485Z,101584.11
2023-05-05T05:45:09.284Z,101583.56
2023-05-05T05:50:35.081Z,101582.55
2023-05-05T05:56:00.806Z,101582.58
2023-05-05T06:01:27.063Z,101584.66
2023-05-05T06:06:52.772Z,101585.48
2023-05-05T06:12:11.967Z,101587.64
2023-05-05T06:17:37.826Z,101588.77
2023-05-05T06:23:03.534Z,101581.13
2023-05-05T06:28:29.588Z,101581.30
2023-05-05T06:33:55.318Z,101582.11
2023-05-05T06:39:15.809Z,101583.48
2023-05-05T06:44:41.769Z,101585.02
2023-05-05T06:50:08.132Z,101592.64
2023-05-05T06:55:34.412Z,101589.99
2023-05-05T07:01:01.037Z,101587.96
2023-05-05T07:06:26.899Z,101588.70
2023-05-05T07:11:53.022Z,101593.09
2023-05-05T07:17:21.275Z,101591.53
2023-05-05T07:22:46.994Z,101595.06
2023-05-05T07:28:12.827Z,101596.89
2023-05-05T07:33:41.159Z,101601.70
2023-05-05T07:39:06.913Z,101602.56
2023-05-05T07:44:32.764Z,101609.31
2023-05-05T07:49:58.445Z,101613.16
2023-05-05T07:55:24.460Z,101613.35
2023-05-05T08:00:50.546Z,101614.22
2023-05-05T08:06:16.592Z,101609.81
2023-05-05T08:11:42.311Z,101610.61
2023-05-05T08:17:08.421Z,101604.02
2023-05-05T08:22:34.125Z,101596.23
2023-05-05T08:28:01.421Z,101586.27
2023-05-05T08:33:27.110Z,101583.07
2023-05-05T08:38:52.947Z,101579.33
2023-05-05T08:44:18.681Z,101585.98
2023-05-05T08:49:45.601Z,101582.23
2023-05-05T08:55:15.646Z,101578.30
2023-05-05T09:00:43.422Z,101583.06
2023-05-05T09:06:12.127Z,101581.06
2023-05-05T09:11:37.781Z,101580.83
2023-05-05T09:17:05.194Z,101578.00
2023-05-05T09:22:31.018Z,101575.74
2023-05-05T09:28:00.112Z,101578.21
2023-05-05T09:33:20.476Z,101581.17
2023-05-05T09:38:46.828Z,101575.49
2023-05-05T09:44:13.419Z,101569.77
2023-05-05T09:49:39.975Z,101560.17
2023-05-05T09:55:14.622Z,101572.47
2023-05-05T10:00:42.370Z,101571.98
2023-05-05T10:06:12.410Z,101576.10
2023-05-05T10:11:38.150Z,101573.86
2023-05-05T10:17:11.622Z,101570.56
2023-05-05T10:22:38.699Z,101563.36
2023-05-05T10:28:06.499Z,101557.39
2023-05-05T10:33:37.713Z,101555.94
2023-05-05T10:39:05.658Z,101558.80
2023-05-05T10:44:32.383Z,101546.51
2023-05-05T10:49:59.922Z,101549.28
2023-05-05T10:55:33.278Z,101546.22
2023-05-05T11:01:14.767Z,101546.12
2023-05-05T11:06:38.997Z,101537.42
2023-05-05T11:12:26.181Z,101526.14
2023-05-05T11:23:45.226Z,101515.81
2023-05-05T11:29:23.668Z,101511.98
2023-05-05T11:34:49.992Z,101512.44
2023-05-05T11:40:28.537Z,101499.04
2023-05-05T11:45:54.712Z,101490.10
2023-05-05T11:51:19.328Z,101481.34
2023-05-05T11:56:45.150Z,101485.23
2023-05-05T12:02:11.218Z,101487.14
2023-05-05T12:07:41.084Z,101490.83
2023-05-05T12:12:59.710Z,101479.36
2023-05-05T12:18:26.046Z,101479.35
2023-05-05T12:23:59.495Z,101471.14
2023-05-05T12:29:17.909Z,101459.64
2023-05-05T12:34:44.133Z,101456.34
2023-05-05T12:40:10.318Z,101460.30
2023-05-05T12:45:39.110Z,101457.09
2023-05-05T12:51:04.821Z,101454.54
2023-05-05T12:56:50.793Z,101448.91
2023-05-05T13:02:17.971Z,101451.85
2023-05-05T13:07:43.994Z,101441.97
2023-05-05T13:13:09.925Z,101440.80
2023-05-05T13:18:30.959Z,101424.83
2023-05-05T13:24:01.572Z,101419.39
2023-05-05T13:29:39.673Z,101401.35
2023-05-05T13:34:59.152Z,101405.36
2023-05-05T13:40:26.053Z,101392.89
2023-05-05T13:45:52.522Z,101389.13
2023-05-05T13:51:18.512Z,101385.96
2023-05-05T13:56:44.356Z,101380.46
2023-05-05T14:02:10.456Z,101375.94
2023-05-05T14:07:36.249Z,101368.83
2023-05-05T14:13:01.960Z,101359.40
2023-05-05T14:18:26.663Z,101355.96
2023-05-05T14:23:52.508Z,101347.39
2023-05-05T14:29:18.519Z,101339.84
2023-05-05T14:34:44.159Z,101340.81
2023-05-05T14:40:09.859Z,101335.14
2023-05-05T14:45:35.316Z,101333.91
2023-05-05T14:51:01.092Z,101328.75
2023-05-05T14:56:21.825Z,101325.39
2023-05-05T15:01:47.877Z,101325.36
2023-05-05T15:07:06.585Z,101327.70
2023-05-05T15:12:32.401Z,101329.34
2023-05-05T15:17:39.029Z,101326.53
2023-05-05T15:23:04.806Z,101330.23
2023-05-05T15:28:30.493Z,101322.55
2023-05-05T15:33:49.931Z,101318.23
2023-05-05T15:39:15.708Z,101319.75
2023-05-05T15:44:41.432Z,101310.44
2023-05-05T15:50:07.200Z,101308.88
2023-05-05T15:55:33.227Z,101309.39
2023-05-05T16:01:00.648Z,101307.61
2023-05-05T16:06:19.955Z,101305.42
2023-05-05T16:11:45.674Z,101311.69
2023-05-05T16:17:11.406Z,101301.21
2023-05-05T16:22:37.866Z,101302.20
2023-05-05T16:28:03.808Z,101298.85
2023-05-05T16:33:29.684Z,101300.09
2023-05-05T16:38:55.731Z,101298.84
2023-05-05T16:44:21.374Z,101293.30
2023-05-05T16:49:47.251Z,101292.73
2023-05-05T16:55:12.960Z,101290.44
2023-05-05T17:00:39.110Z,101290.55
2023-05-05T17:06:05.098Z,101282.98
2023-05-05T17:11:31.125Z,101277.94
2023-05-05T17:16:56.999Z,101275.09
2023-05-05T17:22:23.073Z,101278.08
2023-05-05T17:27:48.748Z,101272.98
2023-05-05T17:33:14.694Z,101274.19
2023-05-05T17:38:40.408Z,101273.48
2023-05-05T17:44:06.164Z,101278.31
2023-05-05T17:49:31.779Z,101275.88
2023-05-05T17:54:57.480Z,101277.72
2023-05-05T18:00:27.152Z,101272.27
2023-05-05T18:05:53.152Z,101264.39
2023-05-05T18:11:17.234Z,101263.60
2023-05-05T18:16:42.930Z,101269.60
2023-05-05T18:22:08.628Z,101288.17
2023-05-05T18:27:27.471Z,101286.19
2023-05-05T18:32:53.190Z,101286.91
2023-05-05T18:38:18.970Z,101292.20
2023-05-05T18:43:44.619Z,101311.09
2023-05-05T18:49:10.692Z,101325.34
2023-05-05T18:54:37.784Z,101328.66
2023-05-05T19:00:02.306Z,101334.30
2023-05-05T19:05:30.010Z,101339.36
2023-05-05T19:10:54.433Z,101339.12
2023-05-05T19:16:20.445Z,101344.48
2023-05-05T19:21:46.360Z,101337.77
2023-05-05T19:27:12.659Z,101337.10
2023-05-05T19:32:40.882Z,101331.96
2023-05-05T19:38:06.593Z,101340.31
2023-05-05T19:43:32.318Z,101346.95
2023-05-05T19:48:57.987Z,101349.21
2023-05-05T19:54:23.913Z,101343.45
2023-05-05T19:59:49.603Z,101341.46
2023-05-05T20:05:15.335Z,101343.04
2023-05-05T20:10:40.992Z,101357.20
2023-05-05T20:16:07.251Z,101358.09
2023-05-05T20:21:33.393Z,101352.52
2023-05-05T20:26:59.047Z,101346.87
2023-05-05T20:32:27.086Z,101340.55
2023-05-05T20:37:53.140Z,101332.55
2023-05-05T20:43:19.146Z,101333.46
2023-05-05T20:48:44.904Z,101333.83
2023-05-05T20:54:10.561Z,101331.27
2023-05-05T20:59:36.139Z,101329.72
2023-05-05T21:05:01.749Z,101329.97
2023-05-05T21:10:29.699Z,101327.45
2023-05-05T21:15:57.895Z,101328.79
2023-05-05T21:21:23.563Z,101322.32
2023-05-05T21:26:50.790Z,101325.87
2023-05-05T21:32:16.437Z,101328.79
2023-05-05T21:37:42.357Z,101323.48
2023-05-05T21:43:08.001Z,101320.50
2023-05-05T21:48:33.748Z,101315.55
2023-05-05T21:53:59.464Z,101326.48
2023-05-05T21:59:25.778Z,101320.66
2023-05-05T22:04:51.523Z,101324.80
2023-05-05T22:10:17.250Z,101333.58
2023-05-05T22:15:47.103Z,101333.20
2023-05-05T22:21:14.005Z,101335.45
2023-05-05T22:26:39.784Z,101338.22
2023-05-05T22:32:05.436Z,101346.64
2023-05-05T22:37:31.290Z,101358.10
2023-05-05T22:42:56.985Z,101362.94
2023-05-05T22:48:22.800Z,101357.71
2023-05-05T22:53:48.423Z,101350.53
2023-05-05T22:59:14.213Z,101349.21
2023-05-05T23:04:40.999Z,101347.20
2023-05-05T23:10:08.403Z,101337.25
2023-05-05T23:15:34.366Z,101336.88
2023-05-05T23:21:00.144Z,101327.33
2023-05-05T23:26:25.891Z,101327.98
2023-05-05T23:31:51.652Z,101327.52
2023-05-05T23:37:17.294Z,101318.33
2023-05-05T23:42:43.018Z,101315.02
2023-05-05T23:48:08.721Z,101306.66
2023-05-05T23:53:35.469Z,101301.59
2023-05-05T23:59:01.142Z,101306.04
